Time;durP1;ratioP1;P1;durP2;ratioP2;P2;SDS_P1;SDS_P2;PMS_P1;PMS_P2;Temp;Humidity;BMP_temperature;BMP_pressure;BME280_temperature;BME280_humidity;BME280_pressure;Samples;Min_cycle;Max_cycle;Signal;HPM_P1;HPM_P2
2023/01/16 00:01:56;;;;;;;1.38;0.65;;;;;;;;;;4994649;28;20041;-76
2023/01/16 00:04:22;;;;;;;2.55;0.73;;;;;;;;;;4994858;28;20712;-76
2023/01/16 00:06:48;;;;;;;1.88;0.43;;;;;;;;;;4995277;28;20030;-78
2023/01/16 00:09:14;;;;;;;2.63;0.88;;;;;;;;;;4993976;28;20691;-78
2023/01/16 00:11:40;;;;;;;5.22;1.00;;;;;;;;;;4995242;28;20733;-78
2023/01/16 00:14:06;;;;;;;0.90;0.50;;;;;;;;;;5000015;28;20014;-78
2023/01/16 00:16:33;;;;;;;3.10;0.90;;;;;;;;;;5001815;28;20026;-78
2023/01/16 00:18:59;;;;;;;2.78;0.52;;;;;;;;;;5000647;28;20026;-78
2023/01/16 00:21:28;;;;;;;3.17;0.73;;;;;;;;;;5000459;28;20045;-78
2023/01/16 00:23:54;;;;;;;1.10;0.40;;;;;;;;;;5000260;28;20093;-78
2023/01/16 00:26:20;;;;;;;5.65;0.80;;;;;;;;;;5000719;28;20121;-78
2023/01/16 00:28:46;;;;;;;2.60;0.98;;;;;;;;;;4996719;28;20536;-78
2023/01/16 00:31:12;;;;;;;2.25;0.80;;;;;;;;;;4994207;28;20022;-78
2023/01/16 00:33:38;;;;;;;3.10;0.70;;;;;;;;;;4994421;28;20041;-77
2023/01/16 00:36:04;;;;;;;1.88;0.60;;;;;;;;;;4993063;28;20030;-78
2023/01/16 00:38:32;;;;;;;4.10;0.88;;;;;;;;;;4994181;28;20477;-77
2023/01/16 00:40:58;;;;;;;5.00;1.10;;;;;;;;;;4994405;28;20022;-78
2023/01/16 00:43:24;;;;;;;1.60;0.85;;;;;;;;;;4993289;28;20027;-78
2023/01/16 00:45:50;;;;;;;1.80;0.80;;;;;;;;;;4998045;28;20029;-78
2023/01/16 00:48:16;;;;;;;5.35;1.67;;;;;;;;;;4997503;28;20027;-77
2023/01/16 00:50:42;;;;;;;4.10;1.75;;;;;;;;;;4994645;28;20477;-78
2023/01/16 00:53:08;;;;;;;5.82;1.63;;;;;;;;;;4995961;28;20030;-76
2023/01/16 00:55:36;;;;;;;7.93;1.42;;;;;;;;;;4997029;28;20521;-77
2023/01/16 00:58:03;;;;;;;2.53;1.38;;;;;;;;;;4994213;28;20046;-79
2023/01/16 01:00:29;;;;;;;5.97;2.00;;;;;;;;;;4994220;28;20049;-78
2023/01/16 01:02:55;;;;;;;4.60;1.30;;;;;;;;;;4994194;28;20030;-79
2023/01/16 01:05:21;;;;;;;6.43;1.40;;;;;;;;;;4994423;28;20073;-78
2023/01/16 01:07:47;;;;;;;3.88;1.40;;;;;;;;;;4998073;28;20032;-78
2023/01/16 01:10:13;;;;;;;2.60;1.30;;;;;;;;;;4998882;28;20026;-79
2023/01/16 01:12:39;;;;;;;4.45;2.03;;;;;;;;;;4996023;28;20022;-78
2023/01/16 01:15:05;;;;;;;4.05;1.42;;;;;;;;;;4995843;28;20030;-78
2023/01/16 01:17:32;;;;;;;3.10;1.40;;;;;;;;;;4995282;28;20476;-78
2023/01/16 01:19:58;;;;;;;4.45;2.15;;;;;;;;;;4992770;28;20041;-78
2023/01/16 01:22:24;;;;;;;2.30;1.15;;;;;;;;;;4994081;28;20090;-79
2023/01/16 01:24:50;;;;;;;4.05;1.55;;;;;;;;;;4994537;28;20438;-79
2023/01/16 01:27:17;;;;;;;2.90;1.10;;;;;;;;;;4994757;28;20096;-78
2023/01/16 01:29:43;;;;;;;2.28;1.05;;;;;;;;;;4994968;28;20026;-79
2023/01/16 01:32:09;;;;;;;3.00;1.40;;;;;;;;;;4994042;28;20042;-79
2023/01/16 01:34:35;;;;;;;2.53;1.48;;;;;;;;;;4994571;28;20034;-79
2023/01/16 01:37:05;;;;;;;2.05;1.10;;;;;;;;;;4991760;28;20114;-77
2023/01/16 01:39:31;;;;;;;2.63;1.13;;;;;;;;;;4993970;28;20053;-78
2023/01/16 01:44:55;;;;;;;3.45;1.10;;;;;;;;;;4989802;28;20037;-78
2023/01/16 01:47:28;;;;;;;4.10;0.98;;;;;;;;;;4995245;28;20097;-78
2023/01/16 01:49:55;;;;;;;3.72;1.13;;;;;;;;;;4995254;28;20365;-78
2023/01/16 01:52:22;;;;;;;5.05;1.58;;;;;;;;;;4993503;28;20022;-78
2023/01/16 01:54:50;;;;;;;5.22;1.13;;;;;;;;;;4994355;28;20027;-79
2023/01/16 01:57:20;;;;;;;2.95;1.08;;;;;;;;;;4993639;28;20048;-78
2023/01/16 01:59:58;;;;;;;3.05;1.20;;;;;;;;;;4993171;28;20030;-78
2023/01/16 02:02:26;;;;;;;4.30;1.00;;;;;;;;;;4993352;28;20058;-78
2023/01/16 02:04:56;;;;;;;1.83;1.05;;;;;;;;;;4992907;28;20377;-78
2023/01/16 02:07:24;;;;;;;3.90;1.17;;;;;;;;;;4992446;28;20015;-77
2023/01/16 02:09:53;;;;;;;3.28;0.77;;;;;;;;;;4993064;28;20434;-78
2023/01/16 02:12:20;;;;;;;2.65;0.93;;;;;;;;;;5010077;23;20046;-76
2023/01/16 02:14:47;;;;;;;3.63;1.75;;;;;;;;;;5014360;28;20106;-75
2023/01/16 02:20:05;;;;;;;2.03;1.10;;;;;;;;;;4992952;28;20042;-76
2023/01/16 02:22:50;;;;;;;3.83;1.30;;;;;;;;;;4992268;28;20030;-75
2023/01/16 02:25:45;;;;;;;6.25;1.08;;;;;;;;;;4992614;28;20022;-75
2023/01/16 02:28:14;;;;;;;5.03;1.05;;;;;;;;;;4956396;28;20107;-74
2023/01/16 02:30:46;;;;;;;4.53;0.95;;;;;;;;;;4992342;28;20109;-75
2023/01/16 02:33:19;;;;;;;1.70;1.00;;;;;;;;;;4992326;28;20031;-75
2023/01/16 02:35:48;;;;;;;7.47;0.93;;;;;;;;;;4992433;28;20030;-74
2023/01/16 02:38:33;;;;;;;5.07;1.00;;;;;;;;;;4991987;28;20492;-75
2023/01/16 02:41:02;;;;;;;3.10;0.95;;;;;;;;;;4992329;28;20113;-75
2023/01/16 02:43:31;;;;;;;3.22;0.82;;;;;;;;;;4992448;28;20072;-74
2023/01/16 02:46:00;;;;;;;4.45;0.90;;;;;;;;;;4992025;28;20392;-75
2023/01/16 02:48:37;;;;;;;3.38;1.00;;;;;;;;;;4994428;28;20396;-75
2023/01/16 02:51:15;;;;;;;8.45;1.58;;;;;;;;;;4993017;28;20396;-75
2023/01/16 02:53:58;;;;;;;2.60;0.70;;;;;;;;;;4992959;28;20095;-74
2023/01/16 02:56:33;;;;;;;2.10;0.57;;;;;;;;;;4992892;28;20024;-75
2023/01/16 02:58:59;;;;;;;1.92;0.80;;;;;;;;;;4992029;28;20081;-75
2023/01/16 03:01:25;;;;;;;5.20;0.85;;;;;;;;;;4992239;28;20050;-75
2023/01/16 03:03:54;;;;;;;3.55;1.05;;;;;;;;;;4991815;28;20030;-75
2023/01/16 03:06:20;;;;;;;1.65;1.02;;;;;;;;;;4991949;28;20540;-73
2023/01/16 03:09:05;;;;;;;1.88;0.90;;;;;;;;;;4991768;28;20069;-74
2023/01/16 03:11:32;;;;;;;3.85;1.70;;;;;;;;;;4991986;28;20472;-75
2023/01/16 03:14:17;;;;;;;4.88;1.70;;;;;;;;;;4991808;28;20076;-75
2023/01/16 03:16:43;;;;;;;5.63;1.77;;;;;;;;;;4992064;28;20037;-75
2023/01/16 03:19:09;;;;;;;2.50;1.10;;;;;;;;;;4991683;28;20023;-75
2023/01/16 03:21:47;;;;;;;2.97;1.20;;;;;;;;;;4991985;28;20503;-75
2023/01/16 03:24:20;;;;;;;3.45;0.80;;;;;;;;;;4992518;28;20041;-76
2023/01/16 03:26:48;;;;;;;3.65;1.50;;;;;;;;;;4991813;28;20030;-75
2023/01/16 03:29:32;;;;;;;2.33;0.68;;;;;;;;;;4991718;28;20027;-75
2023/01/16 03:32:03;;;;;;;4.97;1.13;;;;;;;;;;4992226;28;20037;-75
2023/01/16 03:34:35;;;;;;;4.07;1.13;;;;;;;;;;4992327;28;20019;-75
2023/01/16 03:37:10;;;;;;;3.60;0.63;;;;;;;;;;4993488;28;20358;-75
2023/01/16 03:39:39;;;;;;;7.82;1.80;;;;;;;;;;4994507;28;20033;-74
2023/01/16 03:42:07;;;;;;;3.42;1.05;;;;;;;;;;4994438;28;20052;-75
2023/01/16 03:44:39;;;;;;;4.28;1.30;;;;;;;;;;4994779;28;20033;-75
2023/01/16 03:47:07;;;;;;;2.50;1.00;;;;;;;;;;4997643;28;20022;-75
2023/01/16 03:49:39;;;;;;;2.08;0.90;;;;;;;;;;5007089;28;20022;-76
2023/01/16 03:52:06;;;;;;;5.35;1.30;;;;;;;;;;5005446;28;20031;-75
2023/01/16 03:54:53;;;;;;;5.38;1.30;;;;;;;;;;5005978;28;20058;-75
2023/01/16 03:57:25;;;;;;;23.13;3.17;;;;;;;;;;5006410;28;20027;-75
2023/01/16 03:59:52;;;;;;;2.55;0.93;;;;;;;;;;4997503;28;20026;-75
2023/01/16 04:02:37;;;;;;;1.80;1.00;;;;;;;;;;4994011;28;20081;-75
2023/01/16 04:05:29;;;;;;;4.07;1.33;;;;;;;;;;4993874;28;20022;-74
2023/01/16 04:07:58;;;;;;;2.67;1.20;;;;;;;;;;4981155;28;20034;-75
2023/01/16 04:10:29;;;;;;;2.47;1.10;;;;;;;;;;4997046;28;20022;-75
2023/01/16 04:13:09;;;;;;;3.75;1.55;;;;;;;;;;4995594;28;20049;-74
2023/01/16 04:15:37;;;;;;;3.35;1.48;;;;;;;;;;4995492;28;20030;-74
2023/01/16 04:18:04;;;;;;;2.13;1.50;;;;;;;;;;4993716;28;20133;-74
2023/01/16 04:20:30;;;;;;;3.72;1.58;;;;;;;;;;4995193;28;20524;-73
2023/01/16 04:22:56;;;;;;;4.13;1.75;;;;;;;;;;4995272;28;20027;-74
2023/01/16 04:25:22;;;;;;;6.70;2.20;;;;;;;;;;4994297;28;20419;-73
2023/01/16 04:27:48;;;;;;;2.42;1.42;;;;;;;;;;4994007;28;20030;-74
2023/01/16 04:30:15;;;;;;;3.08;1.70;;;;;;;;;;4995613;28;20533;-74
2023/01/16 04:32:41;;;;;;;4.47;1.65;;;;;;;;;;4995700;28;20105;-73
2023/01/16 04:35:07;;;;;;;4.95;1.83;;;;;;;;;;4995285;28;20161;-74
2023/01/16 04:37:33;;;;;;;6.00;2.42;;;;;;;;;;4997805;28;20186;-74
2023/01/16 04:39:59;;;;;;;6.28;2.40;;;;;;;;;;5000648;28;20050;-74
2023/01/16 04:42:26;;;;;;;5.05;2.42;;;;;;;;;;4999546;28;20035;-74
2023/01/16 04:44:52;;;;;;;6.07;2.13;;;;;;;;;;4997754;28;20108;-75
2023/01/16 04:47:18;;;;;;;3.58;2.42;;;;;;;;;;4994266;28;20050;-75
2023/01/16 04:49:44;;;;;;;3.22;1.90;;;;;;;;;;4994166;28;20038;-75
2023/01/16 04:52:12;;;;;;;2.45;1.73;;;;;;;;;;4994137;28;20026;-74
2023/01/16 04:54:38;;;;;;;6.07;1.90;;;;;;;;;;4994152;28;20033;-75
2023/01/16 04:57:04;;;;;;;3.92;1.90;;;;;;;;;;4993889;28;20031;-75
2023/01/16 04:59:30;;;;;;;4.70;1.92;;;;;;;;;;4994023;28;20109;-75
2023/01/16 05:01:56;;;;;;;5.57;1.50;;;;;;;;;;4993784;28;20126;-75
2023/01/16 05:04:23;;;;;;;5.60;2.08;;;;;;;;;;4993928;28;20026;-74
2023/01/16 05:06:49;;;;;;;2.80;1.40;;;;;;;;;;4993860;28;20029;-74
2023/01/16 05:09:15;;;;;;;4.57;2.50;;;;;;;;;;4993647;28;20034;-75
2023/01/16 05:11:43;;;;;;;3.88;1.70;;;;;;;;;;4994226;28;20077;-75
2023/01/16 05:14:10;;;;;;;4.07;1.70;;;;;;;;;;4994056;28;20088;-75
2023/01/16 05:16:36;;;;;;;5.30;2.30;;;;;;;;;;4993934;28;20041;-75
2023/01/16 05:19:02;;;;;;;4.25;2.20;;;;;;;;;;4994348;28;20026;-75
2023/01/16 05:21:28;;;;;;;3.85;1.95;;;;;;;;;;4994803;28;20026;-75
2023/01/16 05:23:54;;;;;;;5.88;1.98;;;;;;;;;;4993993;28;20089;-75
2023/01/16 05:26:20;;;;;;;3.80;1.98;;;;;;;;;;4993682;28;20041;-74
2023/01/16 05:28:46;;;;;;;5.28;2.40;;;;;;;;;;4993683;28;20026;-74
2023/01/16 05:31:12;;;;;;;6.55;2.13;;;;;;;;;;4992202;28;20027;-74
2023/01/16 05:33:38;;;;;;;5.72;2.10;;;;;;;;;;4993527;28;20523;-74
2023/01/16 05:36:05;;;;;;;3.30;2.70;;;;;;;;;;4993953;28;20034;-74
2023/01/16 05:38:31;;;;;;;5.18;2.15;;;;;;;;;;4993295;28;20026;-75
2023/01/16 05:40:57;;;;;;;8.27;2.53;;;;;;;;;;4993398;28;20397;-75
2023/01/16 05:43:23;;;;;;;3.50;2.22;;;;;;;;;;4993158;28;20025;-75
2023/01/16 05:45:49;;;;;;;3.35;2.83;;;;;;;;;;4993204;28;20023;-75
2023/01/16 05:48:15;;;;;;;3.92;2.03;;;;;;;;;;4992990;28;20029;-74
2023/01/16 05:50:41;;;;;;;4.00;2.40;;;;;;;;;;4993084;28;20045;-75
2023/01/16 05:53:07;;;;;;;5.25;2.50;;;;;;;;;;4991609;28;20023;-75
2023/01/16 05:55:39;;;;;;;5.88;2.63;;;;;;;;;;4993063;28;20089;-75
2023/01/16 05:58:05;;;;;;;2.83;2.00;;;;;;;;;;4991491;28;20051;-74
2023/01/16 06:00:31;;;;;;;4.95;2.33;;;;;;;;;;4993096;28;20102;-75
2023/01/16 06:02:57;;;;;;;6.47;3.00;;;;;;;;;;4992644;28;20154;-76
2023/01/16 06:05:23;;;;;;;3.90;2.25;;;;;;;;;;4992844;28;20061;-74
2023/01/16 06:07:54;;;;;;;4.72;2.65;;;;;;;;;;4992707;28;20046;-74
2023/01/16 06:10:20;;;;;;;3.60;2.75;;;;;;;;;;4993209;28;20023;-76
2023/01/16 06:12:46;;;;;;;7.72;3.00;;;;;;;;;;4991449;28;20501;-76
2023/01/16 06:15:12;;;;;;;4.80;2.63;;;;;;;;;;4991654;28;20436;-73
2023/01/16 06:17:38;;;;;;;6.63;2.65;;;;;;;;;;4992509;28;20449;-76
2023/01/16 06:20:05;;;;;;;4.82;2.40;;;;;;;;;;4991942;28;20408;-75
2023/01/16 06:22:31;;;;;;;8.30;3.90;;;;;;;;;;4991498;28;20077;-74
2023/01/16 06:24:57;;;;;;;4.03;2.15;;;;;;;;;;4993120;28;20054;-75
2023/01/16 06:27:23;;;;;;;4.18;2.67;;;;;;;;;;4992817;28;20022;-76
2023/01/16 06:29:49;;;;;;;4.30;2.40;;;;;;;;;;4992190;28;20034;-73
2023/01/16 06:32:16;;;;;;;4.45;1.85;;;;;;;;;;4992159;28;20488;-75
2023/01/16 06:34:42;;;;;;;4.55;1.98;;;;;;;;;;4992649;28;20042;-73
2023/01/16 06:37:08;;;;;;;3.03;2.00;;;;;;;;;;4992445;28;20027;-73
2023/01/16 06:39:34;;;;;;;6.05;2.20;;;;;;;;;;4992222;28;20030;-75
2023/01/16 06:42:03;;;;;;;3.50;1.92;;;;;;;;;;4992205;28;20034;-75
2023/01/16 06:44:29;;;;;;;3.55;1.67;;;;;;;;;;4992249;28;20023;-75
2023/01/16 06:46:55;;;;;;;7.57;1.88;;;;;;;;;;4992029;28;20093;-75
2023/01/16 06:49:21;;;;;;;3.72;1.85;;;;;;;;;;4992416;28;20026;-76
2023/01/16 06:51:47;;;;;;;4.72;1.85;;;;;;;;;;4990919;28;20018;-75
2023/01/16 06:54:13;;;;;;;2.90;1.42;;;;;;;;;;4992631;28;20116;-74
2023/01/16 06:56:39;;;;;;;2.75;1.40;;;;;;;;;;4991964;28;20061;-75
2023/01/16 06:59:05;;;;;;;4.80;1.85;;;;;;;;;;4991955;28;20037;-74
2023/01/16 07:01:31;;;;;;;6.80;1.65;;;;;;;;;;4992121;28;20381;-74
2023/01/16 07:03:57;;;;;;;3.38;1.60;;;;;;;;;;4992207;28;20113;-74
2023/01/16 07:06:23;;;;;;;2.88;1.40;;;;;;;;;;4992504;28;20501;-74
2023/01/16 07:08:52;;;;;;;5.18;1.77;;;;;;;;;;4992040;28;20022;-74
2023/01/16 07:11:18;;;;;;;2.65;1.30;;;;;;;;;;4993003;28;20026;-75
2023/01/16 07:13:44;;;;;;;4.25;1.63;;;;;;;;;;4998063;28;20038;-74
2023/01/16 07:24:32;;;;;;;4.60;1.45;;;;;;;;;;4992243;28;20042;-73
2023/01/16 07:27:00;;;;;;;3.58;1.30;;;;;;;;;;4989574;28;20441;-72
2023/01/16 07:29:28;;;;;;;4.40;1.77;;;;;;;;;;4990834;28;20110;-74
2023/01/16 07:31:54;;;;;;;3.47;1.83;;;;;;;;;;4990417;28;20433;-73
2023/01/16 07:34:22;;;;;;;2.55;1.48;;;;;;;;;;4991014;28;20130;-74
2023/01/16 07:36:48;;;;;;;3.33;1.60;;;;;;;;;;4991243;28;20030;-73
2023/01/16 07:39:14;;;;;;;4.30;1.70;;;;;;;;;;4991528;28;20081;-74
2023/01/16 07:41:40;;;;;;;3.40;1.48;;;;;;;;;;4992415;28;20018;-73
2023/01/16 07:44:06;;;;;;;3.13;1.58;;;;;;;;;;4995463;28;20034;-75
2023/01/16 07:46:32;;;;;;;3.92;2.00;;;;;;;;;;4995845;28;20027;-75
2023/01/16 07:48:58;;;;;;;3.42;1.73;;;;;;;;;;4995710;28;20026;-74
2023/01/16 07:51:24;;;;;;;5.35;1.50;;;;;;;;;;4995433;28;20392;-72
2023/01/16 07:53:50;;;;;;;2.72;1.45;;;;;;;;;;4995287;28;20094;-74
2023/01/16 07:56:16;;;;;;;2.67;1.33;;;;;;;;;;4992292;28;20022;-73
2023/01/16 07:58:43;;;;;;;3.50;2.00;;;;;;;;;;4989001;28;20042;-74
2023/01/16 08:01:09;;;;;;;4.65;1.33;;;;;;;;;;4994225;28;20491;-74
2023/01/16 08:03:36;;;;;;;3.60;1.25;;;;;;;;;;4993366;28;20513;-73
2023/01/16 08:06:02;;;;;;;2.75;1.60;;;;;;;;;;4987626;28;20023;-72
2023/01/16 08:08:29;;;;;;;2.67;1.58;;;;;;;;;;4974450;28;20037;-74
2023/01/16 08:10:58;;;;;;;6.97;1.88;;;;;;;;;;4975158;28;20111;-74
2023/01/16 08:13:24;;;;;;;2.15;1.00;;;;;;;;;;4990781;23;20108;-76
2023/01/16 08:15:50;;;;;;;3.80;1.10;;;;;;;;;;4974702;28;20034;-77
2023/01/16 08:18:18;;;;;;;3.70;1.00;;;;;;;;;;4973022;28;20041;-76
2023/01/16 08:20:44;;;;;;;4.30;1.15;;;;;;;;;;4975413;28;20019;-76
2023/01/16 08:23:11;;;;;;;2.88;1.35;;;;;;;;;;4975323;28;20038;-77
2023/01/16 08:25:37;;;;;;;3.17;1.05;;;;;;;;;;4974824;28;20473;-76
2023/01/16 08:28:03;;;;;;;2.10;0.95;;;;;;;;;;4974923;28;20033;-76
2023/01/16 08:30:29;;;;;;;1.90;0.95;;;;;;;;;;4975111;28;20022;-75
2023/01/16 08:33:01;;;;;;;4.30;1.13;;;;;;;;;;4975027;28;20038;-77
2023/01/16 08:35:28;;;;;;;2.22;1.02;;;;;;;;;;4974982;28;20031;-76
2023/01/16 08:37:54;;;;;;;2.90;1.30;;;;;;;;;;4989693;28;20417;-77
2023/01/16 08:40:21;;;;;;;3.25;1.13;;;;;;;;;;4974913;28;20026;-77
2023/01/16 08:51:22;;;;;;;5.55;1.25;;;;;;;;;;4966876;28;20069;-75
2023/01/16 08:53:48;;;;;;;2.67;1.02;;;;;;;;;;4974569;28;20058;-77
2023/01/16 08:56:14;;;;;;;2.65;1.30;;;;;;;;;;4974715;28;20106;-77
2023/01/16 08:58:40;;;;;;;3.13;1.15;;;;;;;;;;4991823;28;20035;-77
2023/01/16 09:01:06;;;;;;;3.45;1.10;;;;;;;;;;4974707;28;20211;-71
2023/01/16 09:03:34;;;;;;;2.65;0.98;;;;;;;;;;4974444;28;20023;-72
2023/01/16 09:06:00;;;;;;;3.28;1.00;;;;;;;;;;4974569;28;20401;-70
2023/01/16 09:08:26;;;;;;;2.35;1.20;;;;;;;;;;4974164;28;20019;-71
2023/01/16 09:13:49;;;;;;;2.72;0.98;;;;;;;;;;4974111;28;20052;-71
2023/01/16 09:16:22;;;;;;;5.40;1.30;;;;;;;;;;4974075;28;20019;-69
2023/01/16 09:18:49;;;;;;;5.22;1.58;;;;;;;;;;4973952;28;20045;-74
2023/01/16 09:21:15;;;;;;;5.95;1.35;;;;;;;;;;4973133;28;20363;-75
2023/01/16 09:23:41;;;;;;;4.72;1.27;;;;;;;;;;4951894;28;20107;-75
2023/01/16 09:26:08;;;;;;;1.70;1.00;;;;;;;;;;4953680;29;20069;-76
2023/01/16 09:28:34;;;;;;;2.85;0.85;;;;;;;;;;4953468;29;20025;-76
2023/01/16 09:31:00;;;;;;;3.88;1.00;;;;;;;;;;4953972;28;20023;-77
2023/01/16 09:33:26;;;;;;;2.13;0.88;;;;;;;;;;4953108;29;20027;-77
2023/01/16 09:35:52;;;;;;;6.28;1.10;;;;;;;;;;4952462;28;20499;-76
2023/01/16 09:38:18;;;;;;;2.47;0.93;;;;;;;;;;4966968;28;20039;-76
2023/01/16 09:40:49;;;;;;;5.47;1.00;;;;;;;;;;4952425;28;20041;-77
2023/01/16 09:46:01;;;;;;;2.92;1.08;;;;;;;;;;4952583;29;20104;-76
2023/01/16 09:48:32;;;;;;;2.80;0.90;;;;;;;;;;4952783;29;20050;-76
2023/01/16 09:51:00;;;;;;;5.20;1.93;;;;;;;;;;4953914;29;20028;-76
2023/01/16 09:59:13;;;;;;;5.25;1.30;;;;;;;;;;4953415;28;20521;-76
2023/01/16 10:01:43;;;;;;;2.70;0.90;;;;;;;;;;4952765;28;20125;-76
2023/01/16 10:04:19;;;;;;;3.38;1.38;;;;;;;;;;4952917;28;20489;-76
2023/01/16 10:07:10;;;;;;;4.38;0.98;;;;;;;;;;4939412;29;20031;-77
2023/01/16 10:09:40;;;;;;;5.13;1.23;;;;;;;;;;4968428;28;20028;-76
2023/01/16 10:12:10;;;;;;;2.78;0.63;;;;;;;;;;4953722;29;20528;-77
2023/01/16 10:14:36;;;;;;;3.17;1.02;;;;;;;;;;4937751;29;20173;-76
2023/01/16 10:17:02;;;;;;;3.45;1.42;;;;;;;;;;4953311;29;20023;-76
2023/01/16 10:19:47;;;;;;;4.03;1.15;;;;;;;;;;4953302;28;20027;-76
2023/01/16 10:22:32;;;;;;;3.85;1.27;;;;;;;;;;4952207;29;20028;-76
2023/01/16 10:25:20;;;;;;;1.88;0.95;;;;;;;;;;4951401;28;20478;-76
2023/01/16 10:28:10;;;;;;;3.80;1.50;;;;;;;;;;4951622;28;20109;-76
2023/01/16 10:30:56;;;;;;;7.00;1.70;;;;;;;;;;4918989;29;20037;-76
2023/01/16 10:33:28;;;;;;;7.20;1.33;;;;;;;;;;4943599;29;20070;-76
2023/01/16 10:35:55;;;;;;;5.60;1.38;;;;;;;;;;4953084;29;20041;-76
2023/01/16 10:38:27;;;;;;;3.97;1.60;;;;;;;;;;4952694;28;20031;-76
2023/01/16 10:40:55;;;;;;;2.97;0.95;;;;;;;;;;4951767;29;20031;-77
2023/01/16 10:51:46;;;;;;;5.03;0.90;;;;;;;;;;4953731;29;20129;-75
2023/01/16 10:54:12;;;;;;;5.38;1.33;;;;;;;;;;4953202;28;20035;-75
2023/01/16 10:56:41;;;;;;;3.63;1.20;;;;;;;;;;4953044;29;20028;-76
2023/01/16 10:59:08;;;;;;;2.03;0.77;;;;;;;;;;4952701;28;20027;-76
2023/01/16 11:01:35;;;;;;;3.38;0.60;;;;;;;;;;4953402;28;20130;-75
2023/01/16 11:04:01;;;;;;;2.50;0.60;;;;;;;;;;4953746;29;20035;-77
2023/01/16 11:06:28;;;;;;;2.60;0.93;;;;;;;;;;4953099;28;20046;-76
2023/01/16 11:09:16;;;;;;;4.68;0.90;;;;;;;;;;4951632;28;20027;-76
2023/01/16 11:20:19;;;;;;;3.75;0.98;;;;;;;;;;4956729;28;20070;-75
2023/01/16 11:22:48;;;;;;;3.40;0.90;;;;;;;;;;4956170;28;20078;-77
2023/01/16 11:25:17;;;;;;;4.97;1.35;;;;;;;;;;4956786;28;20031;-76
2023/01/16 11:27:43;;;;;;;5.00;1.25;;;;;;;;;;4956508;28;20082;-76
2023/01/16 11:30:18;;;;;;;2.97;0.98;;;;;;;;;;4955190;29;20019;-76
2023/01/16 11:32:48;;;;;;;5.32;1.10;;;;;;;;;;4954931;29;20110;-76
2023/01/16 11:35:15;;;;;;;3.65;1.08;;;;;;;;;;4955029;28;20065;-76
2023/01/16 11:37:43;;;;;;;3.33;1.08;;;;;;;;;;4953118;29;20023;-76
2023/01/16 11:40:15;;;;;;;3.65;1.20;;;;;;;;;;4954680;29;20032;-75
2023/01/16 11:48:48;;;;;;;5.28;1.50;;;;;;;;;;4933332;28;20374;-76
2023/01/16 11:51:21;;;;;;;5.38;1.35;;;;;;;;;;4958473;28;20023;-76
2023/01/16 11:53:48;;;;;;;7.20;1.63;;;;;;;;;;4973986;28;20055;-77
2023/01/16 11:56:38;;;;;;;4.60;1.58;;;;;;;;;;4973478;28;20039;-76
2023/01/16 11:59:14;;;;;;;8.95;2.00;;;;;;;;;;4948161;29;20043;-76
2023/01/16 12:04:30;;;;;;;3.47;1.42;;;;;;;;;;4953853;29;20528;-77
2023/01/16 12:06:56;;;;;;;4.82;1.83;;;;;;;;;;4941169;29;20024;-76
2023/01/16 12:09:25;;;;;;;3.50;1.77;;;;;;;;;;4969987;28;20019;-76
2023/01/16 12:15:01;;;;;;;6.50;2.10;;;;;;;;;;4942996;29;20590;-76
2023/01/16 12:17:27;;;;;;;;;;;;;;;;;;4955755;28;20026;-76
2023/01/16 12:20:02;;;;;;;5.88;1.92;;;;;;;;;;4955862;28;19906;-76
2023/01/16 12:22:29;;;;;;;4.55;1.60;;;;;;;;;;4955177;28;20397;-76
2023/01/16 12:25:14;;;;;;;6.55;1.73;;;;;;;;;;4955920;28;20027;-75
2023/01/16 12:27:49;;;;;;;6.93;2.28;;;;;;;;;;4954506;28;20474;-76
2023/01/16 12:30:33;;;;;;;6.03;1.52;;;;;;;;;;4955372;28;20050;-76
2023/01/16 12:33:21;;;;;;;9.80;2.15;;;;;;;;;;4969856;28;20521;-75
2023/01/16 12:35:59;;;;;;;6.45;2.10;;;;;;;;;;4953881;28;20027;-76
2023/01/16 12:38:35;;;;;;;5.40;1.55;;;;;;;;;;4955545;29;20078;-77
2023/01/16 12:43:18;;;;;;;5.00;2.05;;;;;;;;;;4955817;28;20049;-76
2023/01/16 12:43:50;;;;;;;4.53;1.63;;;;;;;;;;4955427;29;20039;-76
2023/01/16 12:46:22;;;;;;;5.45;1.73;;;;;;;;;;4955225;28;20023;-77
2023/01/16 12:48:51;;;;;;;4.53;2.20;;;;;;;;;;4955304;29;20506;-76
2023/01/16 12:51:36;;;;;;;3.92;2.45;;;;;;;;;;4955155;28;20027;-74
2023/01/16 12:54:09;;;;;;;6.03;2.25;;;;;;;;;;4956382;29;20020;-76
2023/01/16 12:56:35;;;;;;;4.35;2.05;;;;;;;;;;4956361;29;20095;-76
2023/01/16 12:59:04;;;;;;;6.65;3.00;;;;;;;;;;4958411;28;20074;-76
2023/01/16 13:01:33;;;;;;;4.07;2.05;;;;;;;;;;4969741;28;20030;-76
2023/01/16 13:04:10;;;;;;;3.58;1.90;;;;;;;;;;4960309;28;20060;-76
2023/01/16 13:06:36;;;;;;;4.75;2.25;;;;;;;;;;4955239;28;20516;-76
2023/01/16 13:09:09;;;;;;;3.28;1.80;;;;;;;;;;4955421;28;20011;-75
2023/01/16 13:14:29;;;;;;;8.98;2.33;;;;;;;;;;4956408;29;20046;-75
2023/01/16 13:17:00;;;;;;;7.20;2.42;;;;;;;;;;4955688;28;20039;-74
2023/01/16 13:19:26;;;;;;;;;;;;;;;;;;4954976;28;20074;-74
2023/01/16 13:21:55;;;;;;;3.47;1.90;;;;;;;;;;4954174;28;19915;-75
2023/01/16 13:24:27;;;;;;;3.17;1.67;;;;;;;;;;4953631;29;20027;-74
2023/01/16 13:26:56;;;;;;;6.97;2.30;;;;;;;;;;4954303;29;20026;-77
2023/01/16 13:29:30;;;;;;;9.77;2.10;;;;;;;;;;4954342;29;20480;-75
2023/01/16 13:31:58;;;;;;;5.82;1.80;;;;;;;;;;4954499;28;20504;-75
2023/01/16 13:34:45;;;;;;;6.15;1.63;;;;;;;;;;4954153;29;20038;-77
2023/01/16 13:37:23;;;;;;;7.57;2.22;;;;;;;;;;4950164;28;20367;-78
2023/01/16 13:40:09;;;;;;;4.45;2.05;;;;;;;;;;4950500;28;20090;-74
2023/01/16 13:42:38;;;;;;;12.30;1.55;;;;;;;;;;4954731;28;20082;-76
2023/01/16 13:47:52;;;;;;;3.08;1.20;;;;;;;;;;4952687;29;20074;-76
2023/01/16 13:50:27;;;;;;;6.97;2.03;;;;;;;;;;4951604;29;20023;-75
2023/01/16 13:52:57;;;;;;;7.55;2.17;;;;;;;;;;4952053;28;20107;-74
2023/01/16 13:55:34;;;;;;;5.10;1.83;;;;;;;;;;4935333;29;20066;-74
2023/01/16 13:58:14;;;;;;;5.13;2.35;;;;;;;;;;4930983;29;20086;-76
2023/01/16 14:00:41;;;;;;;6.22;1.73;;;;;;;;;;4935276;29;20110;-73
2023/01/16 14:03:18;;;;;;;4.28;1.58;;;;;;;;;;4938370;29;20090;-74
2023/01/16 14:05:47;;;;;;;7.20;1.88;;;;;;;;;;4945312;28;20114;-74
2023/01/16 14:11:03;;;;;;;6.90;2.25;;;;;;;;;;4934837;29;20043;-75
2023/01/16 14:13:37;;;;;;;5.65;1.90;;;;;;;;;;4968637;23;20043;-73
2023/01/16 14:16:35;;;;;;;5.15;1.75;;;;;;;;;;4992890;28;20033;-73
2023/01/16 14:19:16;;;;;;;4.78;1.92;;;;;;;;;;4988949;28;20492;-72
2023/01/16 14:21:44;;;;;;;6.30;1.90;;;;;;;;;;4993491;28;20365;-74
2023/01/16 14:24:12;;;;;;;4.10;1.80;;;;;;;;;;4992435;28;20084;-75
2023/01/16 14:26:45;;;;;;;6.22;1.95;;;;;;;;;;4992744;28;20016;-75
2023/01/16 14:29:20;;;;;;;5.35;1.42;;;;;;;;;;4992634;28;20027;-74
2023/01/16 14:32:06;;;;;;;11.85;2.10;;;;;;;;;;4992788;28;20030;-75
2023/01/16 14:34:44;;;;;;;4.45;1.42;;;;;;;;;;4992673;28;20046;-73
2023/01/16 14:37:31;;;;;;;6.00;1.92;;;;;;;;;;4992888;28;20031;-74
2023/01/16 14:39:58;;;;;;;8.55;2.15;;;;;;;;;;4993631;28;20018;-74
2023/01/16 14:57:06;;;;;;;3.83;2.08;;;;;;;;;;4991989;28;20045;-74
2023/01/16 14:59:34;;;;;;;3.40;1.20;;;;;;;;;;4992047;28;20124;-74
2023/01/16 15:02:18;;;;;;;3.63;1.30;;;;;;;;;;4990564;28;20030;-73
2023/01/16 15:05:08;;;;;;;4.35;1.88;;;;;;;;;;4992114;28;20503;-74
2023/01/16 15:07:37;;;;;;;5.90;1.70;;;;;;;;;;4993071;28;20023;-74
2023/01/16 15:10:06;;;;;;;6.82;2.55;;;;;;;;;;4992994;28;20030;-75
2023/01/16 15:12:38;;;;;;;3.55;1.80;;;;;;;;;;4992547;28;20106;-75
2023/01/16 15:15:04;;;;;;;;;;;;;;;;;;4991540;28;20102;-73
2023/01/16 15:23:20;;;;;;;3.58;1.75;;;;;;;;;;4992401;28;20034;-74
2023/01/16 15:25:46;;;;;;;4.47;2.33;;;;;;;;;;4992006;28;20050;-73
2023/01/16 15:28:27;;;;;;;8.85;2.00;;;;;;;;;;4991602;28;20029;-74
2023/01/16 15:30:59;;;;;;;7.38;1.75;;;;;;;;;;4991990;28;20050;-73
2023/01/16 15:33:45;;;;;;;7.28;2.10;;;;;;;;;;4992318;28;20022;-73
2023/01/16 15:36:11;;;;;;;7.03;2.90;;;;;;;;;;4991617;28;20084;-73
2023/01/16 15:38:37;;;;;;;9.18;2.58;;;;;;;;;;4991622;28;20037;-73
2023/01/16 15:41:03;;;;;;;7.65;2.58;;;;;;;;;;4991918;28;20022;-73
2023/01/16 15:46:48;;;;;;;5.55;2.35;;;;;;;;;;4991811;28;20464;-74
2023/01/16 15:49:25;;;;;;;3.92;2.22;;;;;;;;;;4990357;28;20027;-73
2023/01/16 15:51:52;;;;;;;7.05;2.55;;;;;;;;;;4991804;28;20023;-73
2023/01/16 15:54:18;;;;;;;6.15;2.30;;;;;;;;;;4991497;28;20030;-74
2023/01/16 15:56:45;;;;;;;9.20;2.42;;;;;;;;;;4991575;28;20034;-75
2023/01/16 15:59:30;;;;;;;6.45;2.55;;;;;;;;;;4991096;28;20121;-75
2023/01/16 16:02:16;;;;;;;7.10;2.70;;;;;;;;;;4992784;28;20050;-74
2023/01/16 16:04:42;;;;;;;7.07;2.55;;;;;;;;;;4994460;28;20063;-74
2023/01/16 16:07:09;;;;;;;6.97;2.80;;;;;;;;;;4994700;28;20018;-74
2023/01/16 16:09:35;;;;;;;4.90;2.08;;;;;;;;;;4994964;28;20029;-74
2023/01/16 16:12:04;;;;;;;4.07;2.05;;;;;;;;;;4995442;28;20125;-74
2023/01/16 16:20:24;;;;;;;5.15;2.53;;;;;;;;;;4975417;28;20571;-74
2023/01/16 16:22:50;;;;;;;7.22;2.63;;;;;;;;;;4975434;28;20300;-74
2023/01/16 16:25:37;;;;;;;9.48;2.95;;;;;;;;;;4975729;28;20019;-75
2023/01/16 16:28:04;;;;;;;7.53;2.72;;;;;;;;;;4991941;28;20097;-75
2023/01/16 16:30:31;;;;;;;8.48;2.92;;;;;;;;;;4994967;28;20449;-76
2023/01/16 16:32:57;;;;;;;5.43;2.40;;;;;;;;;;4994896;28;20030;-73
2023/01/16 16:35:23;;;;;;;4.13;2.50;;;;;;;;;;4994658;28;20022;-74
2023/01/16 16:37:49;;;;;;;3.83;2.10;;;;;;;;;;4994343;28;20037;-75
2023/01/16 16:40:16;;;;;;;6.85;2.42;;;;;;;;;;4993183;28;20088;-76